createdAt,value
2022-08-10T00:00:02.934Z,59
2022-08-10T00:20:08.467Z,60
2022-08-10T00:40:03.254Z,62
2022-08-10T01:00:02.599Z,62
2022-08-10T01:20:03.013Z,62
2022-08-10T01:40:02.320Z,63
2022-08-10T02:00:03.680Z,64
2022-08-10T02:20:03.311Z,65
2022-08-10T02:40:02.617Z,66
2022-08-10T03:00:02.884Z,66
2022-08-10T03:20:40.022Z,66
2022-08-10T03:40:02.532Z,67
2022-08-10T04:00:02.691Z,68
2022-08-10T04:20:03.150Z,68
2022-08-10T04:40:02.687Z,69
2022-08-10T05:00:18.741Z,69
2022-08-10T05:20:07.571Z,69
2022-08-10T05:40:03.237Z,69
2022-08-10T06:00:39.806Z,68
2022-08-10T06:20:03.209Z,65
2022-08-10T06:40:02.446Z,63
2022-08-10T07:00:04.845Z,60
2022-08-10T07:20:04.516Z,55
2022-08-10T07:40:05.149Z,51
2022-08-10T08:00:04.541Z,47
2022-08-10T08:20:04.170Z,43
2022-08-10T08:40:03.021Z,39
2022-08-10T09:00:02.397Z,37
2022-08-10T09:20:02.982Z,34
2022-08-10T09:41:02.388Z,31
2022-08-10T10:00:03.287Z,29
2022-08-10T10:20:02.911Z,28
2022-08-10T10:40:02.466Z,27
2022-08-10T11:00:02.593Z,25
2022-08-10T11:20:04.630Z,25
2022-08-10T11:40:03.020Z,23
2022-08-10T12:00:02.518Z,22
2022-08-10T12:20:04.169Z,23
2022-08-10T12:40:35.988Z,23
2022-08-10T13:00:02.600Z,24
2022-08-10T13:20:14.115Z,25
2022-08-10T13:40:02.721Z,25
2022-08-10T14:00:38.572Z,25
2022-08-10T14:20:03.675Z,25
2022-08-10T14:40:04.958Z,25
2022-08-10T15:00:32.948Z,25
2022-08-10T15:20:14.806Z,25
2022-08-10T15:40:32.296Z,24
2022-08-10T16:00:02.740Z,24
2022-08-10T16:20:02.852Z,26
2022-08-10T16:40:03.646Z,26
2022-08-10T17:00:03.008Z,27
2022-08-10T17:20:32.696Z,28
2022-08-10T17:40:03.283Z,29
2022-08-10T18:00:02.698Z,31
2022-08-10T18:20:02.408Z,33
2022-08-10T18:40:02.698Z,36
2022-08-10T19:00:09.091Z,38
2022-08-10T19:20:03.062Z,39
2022-08-10T19:40:03.084Z,40
2022-08-10T20:00:23.133Z,41
2022-08-10T20:20:03.133Z,43
2022-08-10T20:40:02.436Z,44
2022-08-10T21:00:05.367Z,46
2022-08-10T21:20:02.805Z,47
2022-08-10T21:40:03.314Z,48
2022-08-10T22:00:02.618Z,48
2022-08-10T22:20:02.984Z,49
2022-08-10T22:40:13.848Z,49
2022-08-10T23:00:02.154Z,50
2022-08-10T23:20:02.581Z,51
2022-08-10T23:40:02.887Z,52
